CFG3302 EGKK-EDDF
Flight info
| Callsign | CFG3302 |
|---|---|
| Flight time | N/A |
| Altitude | 35000 |
| Route | DVR UL9 KONAN UL607 KOK DCT REMBA UL607 SPI T180 NIVNU/N0414F230 T847 IMCOM IMCOM1B |
| Aircraft | A320/M-SDE3FGHIRWY/LB1 |
Departure
| Time | 2026-05-04 14:56 |
|---|---|
| Airport | London Gatwick Airport (EGKK) |
Arrival
| Time | N/A |
|---|---|
| Airport | Frankfurt Main Airport (EDDF) |
| Time | Latitude | Longitude | Altitude | Speed | Heading |
|---|---|---|---|---|---|
| 2026-05-04 14:23 | 51.16112 | -0.18017 | 204 ft | 0 kts | 78° |
| 2026-05-04 14:37 | 51.16108 | -0.18047 | 214 ft | 4 kts | 78° |
| 2026-05-04 14:38 | 51.16102 | -0.18089 | 214 ft | 4 kts | 78° |
| 2026-05-04 14:38 | 51.16097 | -0.18130 | 214 ft | 4 kts | 87° |
| 2026-05-04 14:38 | 51.16101 | -0.18165 | 212 ft | 4 kts | 149° |
| 2026-05-04 14:38 | 51.16120 | -0.18175 | 212 ft | 4 kts | 168° |
| 2026-05-04 14:39 | 51.16126 | -0.18177 | 206 ft | 0 kts | 168° |
| 2026-05-04 14:44 | 51.16111 | -0.18171 | 214 ft | 2 kts | 168° |
| 2026-05-04 14:44 | 51.16098 | -0.18167 | 204 ft | 3 kts | 167° |
| 2026-05-04 14:44 | 51.16034 | -0.18145 | 212 ft | 12 kts | 167° |
| 2026-05-04 14:44 | 51.15960 | -0.18119 | 207 ft | 10 kts | 168° |
| 2026-05-04 14:45 | 51.15897 | -0.18097 | 204 ft | 8 kts | 168° |
| 2026-05-04 14:45 | 51.15844 | -0.18079 | 210 ft | 7 kts | 168° |
| 2026-05-04 14:45 | 51.15802 | -0.18065 | 211 ft | 6 kts | 168° |
| 2026-05-04 14:45 | 51.15732 | -0.18039 | 208 ft | 15 kts | 167° |
| 2026-05-04 14:46 | 51.15682 | -0.18088 | 206 ft | 8 kts | 249° |
| 2026-05-04 14:46 | 51.15669 | -0.18175 | 207 ft | 9 kts | 257° |
| 2026-05-04 14:46 | 51.15646 | -0.18346 | 210 ft | 21 kts | 258° |
| 2026-05-04 14:46 | 51.15610 | -0.18610 | 204 ft | 26 kts | 257° |
| 2026-05-04 14:47 | 51.15569 | -0.18811 | 207 ft | 14 kts | 222° |
| 2026-05-04 14:47 | 51.15483 | -0.18804 | 204 ft | 12 kts | 167° |
| 2026-05-04 14:47 | 51.15386 | -0.18770 | 210 ft | 17 kts | 167° |
| 2026-05-04 14:47 | 51.15290 | -0.18738 | 204 ft | 11 kts | 168° |
| 2026-05-04 14:48 | 51.15235 | -0.18716 | 208 ft | 7 kts | 166° |
| 2026-05-04 14:48 | 51.15185 | -0.18699 | 204 ft | 10 kts | 168° |
| 2026-05-04 14:48 | 51.15132 | -0.18739 | 205 ft | 8 kts | 223° |
| 2026-05-04 14:48 | 51.15113 | -0.18851 | 212 ft | 18 kts | 262° |
| 2026-05-04 14:49 | 51.15084 | -0.19063 | 211 ft | 19 kts | 258° |
| 2026-05-04 14:49 | 51.15054 | -0.19271 | 214 ft | 20 kts | 259° |
| 2026-05-04 14:49 | 51.15024 | -0.19507 | 208 ft | 23 kts | 257° |
| 2026-05-04 14:49 | 51.14986 | -0.19774 | 209 ft | 26 kts | 260° |
| 2026-05-04 14:50 | 51.14944 | -0.20074 | 208 ft | 29 kts | 258° |
| 2026-05-04 14:50 | 51.14899 | -0.20408 | 215 ft | 32 kts | 257° |
| 2026-05-04 14:50 | 51.14857 | -0.20713 | 203 ft | 27 kts | 260° |
| 2026-05-04 14:50 | 51.14815 | -0.21009 | 204 ft | 27 kts | 258° |
| 2026-05-04 14:51 | 51.14776 | -0.21226 | 206 ft | 19 kts | 256° |
| 2026-05-04 14:51 | 51.14765 | -0.21312 | 207 ft | 10 kts | 258° |
| 2026-05-04 14:51 | 51.14721 | -0.21400 | 207 ft | 9 kts | 192° |
| 2026-05-04 14:51 | 51.14703 | -0.21397 | 204 ft | 1 kts | 166° |
| 2026-05-04 14:52 | 51.14663 | -0.21362 | 212 ft | 11 kts | 139° |
| 2026-05-04 14:52 | 51.14615 | -0.21325 | 203 ft | 5 kts | 170° |
| 2026-05-04 14:52 | 51.14614 | -0.21324 | 203 ft | 0 kts | 169° |
| 2026-05-04 14:53 | 51.14566 | -0.21299 | 203 ft | 15 kts | 155° |
| 2026-05-04 14:53 | 51.14522 | -0.21152 | 202 ft | 10 kts | 77° |
| 2026-05-04 14:53 | 51.14523 | -0.21148 | 202 ft | 0 kts | 77° |
| 2026-05-04 14:55 | 51.14545 | -0.20987 | 207 ft | 47 kts | 77° |
| 2026-05-04 14:55 | 51.14664 | -0.20128 | 205 ft | 109 kts | 77° |
| 2026-05-04 14:55 | 51.14867 | -0.18661 | 205 ft | 160 kts | 77° |
| 2026-05-04 14:56 | 51.15091 | -0.16908 | 766 ft | 161 kts | 79° |
| 2026-05-04 14:56 | 51.15310 | -0.15150 | 1461 ft | 162 kts | 79° |
| 2026-05-04 14:56 | 51.15542 | -0.13345 | 1872 ft | 178 kts | 78° |
| 2026-05-04 14:56 | 51.15809 | -0.11294 | 2172 ft | 199 kts | 78° |
| 2026-05-04 14:57 | 51.16112 | -0.09030 | 2543 ft | 220 kts | 78° |
| 2026-05-04 14:57 | 51.16452 | -0.06520 | 2905 ft | 244 kts | 77° |
| 2026-05-04 14:57 | 51.16819 | -0.03784 | 3481 ft | 257 kts | 78° |
| 2026-05-04 14:57 | 51.17194 | -0.00968 | 4280 ft | 262 kts | 77° |
| 2026-05-04 14:58 | 51.17576 | 0.01900 | 5093 ft | 266 kts | 77° |
| 2026-05-04 14:58 | 51.17961 | 0.04810 | 5887 ft | 271 kts | 77° |
| 2026-05-04 14:58 | 51.18304 | 0.07786 | 6652 ft | 276 kts | 85° |
| 2026-05-04 14:58 | 51.18208 | 0.10866 | 7404 ft | 280 kts | 95° |
| 2026-05-04 14:59 | 51.18017 | 0.13980 | 8251 ft | 284 kts | 96° |
| 2026-05-04 14:59 | 51.17824 | 0.17115 | 9094 ft | 287 kts | 96° |
| 2026-05-04 14:59 | 51.17430 | 0.23556 | 10336 ft | 305 kts | 96° |
| 2026-05-04 15:00 | 51.17215 | 0.27046 | 10522 ft | 328 kts | 96° |
| 2026-05-04 15:00 | 51.16984 | 0.30793 | 10680 ft | 350 kts | 96° |
| 2026-05-04 15:00 | 51.16883 | 0.34732 | 11147 ft | 360 kts | 90° |
| 2026-05-04 15:01 | 51.16882 | 0.42805 | 12448 ft | 368 kts | 91° |
| 2026-05-04 15:01 | 51.16868 | 0.46905 | 13107 ft | 372 kts | 91° |